createdAt,value
2018-06-03T00:02:21.653Z,98567.75
2018-06-03T00:04:50.723Z,98563.02
2018-06-03T00:07:19.052Z,98562.42
2018-06-03T00:09:47.359Z,98565.53
2018-06-03T00:12:15.668Z,98563.58
2018-06-03T00:14:43.957Z,98570.45
2018-06-03T00:17:12.262Z,98571.95
2018-06-03T00:19:40.576Z,98573.80
2018-06-03T00:22:11.414Z,98570.19
2018-06-03T00:24:39.883Z,98579.88
2018-06-03T00:27:08.329Z,98578.13
2018-06-03T00:29:36.645Z,98572.73
2018-06-03T00:32:04.917Z,98579.54
2018-06-03T00:34:33.395Z,98577.72
2018-06-03T00:37:01.867Z,98581.06
2018-06-03T00:39:30.198Z,98570.25
2018-06-03T00:41:58.520Z,98572.14
2018-06-03T00:44:26.786Z,98569.88
2018-06-03T00:46:55.104Z,98554.42
2018-06-03T00:49:23.380Z,98565.19
2018-06-03T00:51:51.822Z,98573.22
2018-06-03T00:54:20.136Z,98572.88
2018-06-03T00:56:59.707Z,98571.04
2018-06-03T00:59:28.002Z,98569.69
2018-06-03T01:01:56.350Z,98568.42
2018-06-03T01:04:24.810Z,98564.41
2018-06-03T01:06:53.181Z,98563.48
2018-06-03T01:09:21.468Z,98556.79
2018-06-03T01:11:49.800Z,98557.19
2018-06-03T01:14:18.145Z,98558.22
2018-06-03T01:16:46.473Z,98555.92
2018-06-03T01:19:14.772Z,98558.48
2018-06-03T01:21:43.096Z,98559.21
2018-06-03T01:24:11.469Z,98557.79
2018-06-03T01:26:39.732Z,98553.22
2018-06-03T01:29:08.337Z,98557.65
2018-06-03T01:31:36.727Z,98558.72
2018-06-03T01:34:04.985Z,98551.77
2018-06-03T01:36:33.277Z,98552.81
2018-06-03T01:39:01.570Z,98555.59
2018-06-03T01:41:29.978Z,98556.94
2018-06-03T01:46:29.119Z,98548.17
2018-06-03T01:48:59.028Z,98555.81
2018-06-03T01:51:27.342Z,98550.84
2018-06-03T01:53:55.739Z,98560.20
2018-06-03T01:56:24.034Z,98547.34
2018-06-03T01:58:52.352Z,98550.80
2018-06-03T02:01:21.756Z,98544.20
2018-06-03T02:03:50.098Z,98544.64
2018-06-03T02:06:18.453Z,98540.55
2018-06-03T02:08:46.789Z,98533.61
2018-06-03T02:11:15.175Z,98533.91
2018-06-03T02:13:45.159Z,98535.80
2018-06-03T02:16:13.425Z,98530.78
2018-06-03T02:18:41.696Z,98526.50
2018-06-03T02:21:10.214Z,98518.58
2018-06-03T02:23:38.716Z,98518.19
2018-06-03T02:26:07.045Z,98510.98
2018-06-03T02:28:35.347Z,98517.47
2018-06-03T02:31:03.631Z,98510.59
2018-06-03T02:33:31.965Z,98517.47
2018-06-03T02:36:00.313Z,98518.81
2018-06-03T02:38:28.670Z,98519.78
2018-06-03T02:40:57.160Z,98519.38
2018-06-03T02:43:25.558Z,98514.81
2018-06-03T02:45:54.040Z,98521.02
2018-06-03T02:48:22.345Z,98520.30
2018-06-03T02:50:50.775Z,98523.30
2018-06-03T02:53:19.189Z,98519.38
2018-06-03T02:55:47.543Z,98518.58
2018-06-03T02:58:15.841Z,98523.27
2018-06-03T03:00:44.433Z,98519.41
2018-06-03T03:03:12.766Z,98531.92
2018-06-03T03:05:41.143Z,98517.05
2018-06-03T03:08:09.484Z,98511.53
2018-06-03T03:10:37.809Z,98510.72
2018-06-03T03:13:06.188Z,98510.38
2018-06-03T03:15:34.593Z,98513.86
2018-06-03T03:18:02.901Z,98510.59
2018-06-03T03:20:31.168Z,98508.66
2018-06-03T03:22:59.533Z,98510.42
2018-06-03T03:25:27.916Z,98515.00
2018-06-03T03:27:56.237Z,98517.36
2018-06-03T03:30:24.521Z,98518.61
2018-06-03T03:32:52.914Z,98516.43
2018-06-03T03:35:21.254Z,98523.89
2018-06-03T03:37:49.582Z,98519.41
2018-06-03T03:40:17.975Z,98522.05
2018-06-03T03:42:46.494Z,98528.73
2018-06-03T03:45:14.798Z,98527.44
2018-06-03T03:47:43.256Z,98532.12
2018-06-03T03:50:11.533Z,98530.30
2018-06-03T03:52:39.798Z,98528.25
2018-06-03T03:55:08.377Z,98531.64
2018-06-03T03:57:36.666Z,98532.61
2018-06-03T04:00:05.043Z,98529.91
2018-06-03T04:02:33.395Z,98534.20
2018-06-03T04:05:01.717Z,98538.54
2018-06-03T04:07:30.120Z,98539.45
2018-06-03T04:09:58.478Z,98542.45
2018-06-03T04:12:26.833Z,98546.88
2018-06-03T04:14:55.155Z,98547.83
2018-06-03T04:17:23.490Z,98547.39
2018-06-03T04:19:51.765Z,98550.02
2018-06-03T04:22:20.012Z,98558.09
2018-06-03T04:24:48.295Z,98559.58
2018-06-03T04:27:16.624Z,98561.97
2018-06-03T04:29:44.909Z,98570.00
2018-06-03T04:32:13.781Z,98565.06
2018-06-03T04:34:42.058Z,98568.87
2018-06-03T04:37:10.465Z,98571.95
2018-06-03T04:39:38.815Z,98569.44
2018-06-03T04:42:07.076Z,98576.20
2018-06-03T04:44:35.459Z,98572.23
2018-06-03T04:47:03.838Z,98566.88
2018-06-03T04:49:32.131Z,98559.03
2018-06-03T04:52:00.457Z,98563.89
2018-06-03T04:54:28.788Z,98556.71
2018-06-03T04:56:57.139Z,98565.38
2018-06-03T04:59:25.502Z,98559.18
2018-06-03T05:01:53.799Z,98561.37
2018-06-03T05:04:22.218Z,98555.92
2018-06-03T05:06:50.555Z,98559.03
2018-06-03T05:09:18.901Z,98557.05
2018-06-03T05:11:47.227Z,98555.70
2018-06-03T05:14:15.649Z,98554.94
2018-06-03T05:16:44.063Z,98550.40
2018-06-03T05:19:12.419Z,98552.08
2018-06-03T05:21:40.754Z,98553.20
2018-06-03T05:24:09.384Z,98553.84
2018-06-03T05:26:37.724Z,98561.63
2018-06-03T05:29:06.030Z,98550.61
2018-06-03T05:31:34.355Z,98554.59
2018-06-03T05:34:02.640Z,98554.41
2018-06-03T05:36:30.948Z,98554.45
2018-06-03T05:38:59.297Z,98560.80
2018-06-03T05:41:27.688Z,98559.20
2018-06-03T05:43:56.412Z,98561.27
2018-06-03T05:46:24.769Z,98555.81
2018-06-03T05:48:53.078Z,98560.71
2018-06-03T05:51:21.500Z,98558.68
2018-06-03T05:53:49.937Z,98560.52
2018-06-03T05:56:18.573Z,98555.76
2018-06-03T05:58:46.903Z,98552.86
2018-06-03T06:01:15.223Z,98560.54
2018-06-03T06:03:43.577Z,98561.97
2018-06-03T06:06:11.858Z,98566.79
2018-06-03T06:08:40.210Z,98570.31
2018-06-03T06:11:08.635Z,98566.97
2018-06-03T06:13:36.924Z,98572.44
2018-06-03T06:16:08.121Z,98576.48
2018-06-03T06:18:36.544Z,98567.13
2018-06-03T06:21:06.122Z,98570.50
2018-06-03T06:23:34.496Z,98567.78
2018-06-03T06:26:02.816Z,98571.02
2018-06-03T06:28:31.203Z,98566.48
2018-06-03T06:30:59.548Z,98568.83
2018-06-03T06:33:27.955Z,98576.58
2018-06-03T06:35:56.331Z,98566.66
2018-06-03T06:38:24.664Z,98579.89
2018-06-03T06:40:53.085Z,98575.77
2018-06-03T06:43:21.411Z,98580.50
2018-06-03T06:45:49.917Z,98587.30
2018-06-03T06:48:18.304Z,98588.33
2018-06-03T06:50:46.738Z,98588.86
2018-06-03T06:53:15.064Z,98593.97
2018-06-03T06:55:43.434Z,98591.00
2018-06-03T06:58:11.894Z,98584.58
2018-06-03T07:00:40.165Z,98585.11
2018-06-03T07:03:08.596Z,98584.37
2018-06-03T07:05:36.983Z,98589.34
2018-06-03T07:08:05.377Z,98582.71
2018-06-03T07:10:33.747Z,98578.56
2018-06-03T07:13:02.036Z,98584.16
2018-06-03T07:15:30.411Z,98580.41
2018-06-03T07:17:58.841Z,98584.47
2018-06-03T07:20:27.308Z,98580.70
2018-06-03T07:22:55.579Z,98578.52
2018-06-03T07:25:23.892Z,98576.14
2018-06-03T07:27:52.227Z,98583.48
2018-06-03T07:30:20.640Z,98578.53
2018-06-03T07:32:48.973Z,98579.42
2018-06-03T07:35:17.418Z,98577.72
2018-06-03T07:37:45.772Z,98573.21
2018-06-03T07:40:14.161Z,98575.99
2018-06-03T07:42:42.579Z,98576.28
2018-06-03T07:45:10.889Z,98580.66
2018-06-03T07:47:39.184Z,98583.34
2018-06-03T07:50:07.511Z,98574.67
2018-06-03T07:52:35.911Z,98577.50
2018-06-03T07:55:04.495Z,98576.41
2018-06-03T07:57:32.785Z,98570.73
2018-06-03T08:00:01.041Z,98574.75
2018-06-03T08:02:29.392Z,98574.27
2018-06-03T08:04:57.737Z,98572.86
2018-06-03T08:07:26.067Z,98571.89
2018-06-03T08:09:54.403Z,98562.67
2018-06-03T08:12:22.864Z,98568.05
2018-06-03T08:14:51.199Z,98561.58
2018-06-03T08:17:19.645Z,98565.09
2018-06-03T08:19:47.944Z,98559.13
2018-06-03T08:22:16.339Z,98556.80
2018-06-03T08:24:44.661Z,98555.80
2018-06-03T08:27:14.055Z,98555.57
2018-06-03T08:29:42.363Z,98559.11
2018-06-03T08:32:11.238Z,98559.03
2018-06-03T08:34:39.596Z,98556.05
2018-06-03T08:37:08.026Z,98552.08
2018-06-03T08:39:36.349Z,98558.11
2018-06-03T08:42:04.687Z,98551.00
2018-06-03T08:44:33.041Z,98546.18
2018-06-03T08:47:02.500Z,98546.70
2018-06-03T08:49:31.007Z,98545.02
2018-06-03T08:51:59.452Z,98537.52
2018-06-03T08:54:27.790Z,98535.91
2018-06-03T08:56:56.087Z,98532.80
2018-06-03T08:59:24.434Z,98528.36
2018-06-03T09:01:52.844Z,98527.41
2018-06-03T09:04:21.134Z,98525.33
2018-06-03T09:06:49.450Z,98529.05
2018-06-03T09:09:17.854Z,98524.50
2018-06-03T09:11:46.233Z,98525.33
2018-06-03T09:14:14.613Z,98514.03
2018-06-03T09:16:43.079Z,98518.02
2018-06-03T09:19:11.401Z,98512.95
2018-06-03T09:21:39.795Z,98505.83
2018-06-03T09:24:08.178Z,98504.19
2018-06-03T09:26:36.569Z,98500.52
2018-06-03T09:29:04.860Z,98503.52
2018-06-03T09:31:33.392Z,98504.42
2018-06-03T09:34:01.839Z,98502.69
2018-06-03T09:36:30.188Z,98498.46
2018-06-03T09:38:58.539Z,98496.89
2018-06-03T09:41:26.856Z,98498.42
2018-06-03T09:43:55.292Z,98501.70
2018-06-03T09:46:23.638Z,98496.12
2018-06-03T09:48:51.978Z,98492.59
2018-06-03T09:51:21.110Z,98491.83
2018-06-03T09:53:49.552Z,98498.48
2018-06-03T09:56:17.838Z,98490.55
2018-06-03T09:58:46.441Z,98486.95
2018-06-03T10:01:14.986Z,98478.77
2018-06-03T10:03:43.509Z,98479.59
2018-06-03T10:06:11.909Z,98476.20
2018-06-03T10:08:40.279Z,98480.22
2018-06-03T10:11:08.591Z,98476.97
2018-06-03T10:13:36.912Z,98472.97
2018-06-03T10:16:05.664Z,98472.13
2018-06-03T10:18:34.070Z,98463.02
2018-06-03T10:21:02.428Z,98458.95
2018-06-03T10:23:30.780Z,98456.95
2018-06-03T10:25:59.171Z,98466.87
2018-06-03T10:28:27.506Z,98465.30
2018-06-03T10:30:55.905Z,98462.78
2018-06-03T10:33:24.239Z,98462.26
2018-06-03T10:35:52.622Z,98453.56
2018-06-03T10:38:20.989Z,98458.38
2018-06-03T10:40:49.435Z,98455.12
2018-06-03T10:43:17.781Z,98454.98
2018-06-03T10:45:46.077Z,98453.64
2018-06-03T10:48:14.397Z,98450.60
2018-06-03T10:50:42.741Z,98451.33
2018-06-03T10:53:11.192Z,98449.12
2018-06-03T10:55:39.598Z,98445.74
2018-06-03T10:58:07.950Z,98445.59
2018-06-03T11:00:36.366Z,98435.90
2018-06-03T11:03:04.735Z,98436.23
2018-06-03T11:05:33.131Z,98438.65
2018-06-03T11:08:01.458Z,98437.27
2018-06-03T11:10:29.747Z,98433.91
2018-06-03T11:12:58.052Z,98436.23
2018-06-03T11:15:26.404Z,98424.94
2018-06-03T11:17:54.718Z,98427.14
2018-06-03T11:20:22.992Z,98432.77
2018-06-03T11:22:51.511Z,98422.36
2018-06-03T11:25:19.938Z,98418.98
2018-06-03T11:27:48.368Z,98414.89
2018-06-03T11:30:16.674Z,98420.96
2018-06-03T11:32:45.182Z,98413.34
2018-06-03T11:35:13.616Z,98409.03
2018-06-03T11:37:42.284Z,98405.64
2018-06-03T11:40:10.631Z,98403.48
2018-06-03T11:42:40.234Z,98404.93
2018-06-03T11:45:08.906Z,98403.36
2018-06-03T11:47:37.233Z,98403.05
2018-06-03T11:50:05.528Z,98401.95
2018-06-03T11:52:34.544Z,98392.16
2018-06-03T11:55:03.048Z,98391.22
2018-06-03T11:58:45.265Z,98388.97
2018-06-03T12:01:13.712Z,98390.03
2018-06-03T12:03:42.056Z,98384.59
2018-06-03T12:06:10.433Z,98375.28
2018-06-03T12:08:38.832Z,98375.34
2018-06-03T12:11:07.736Z,98373.78
2018-06-03T12:13:36.116Z,98367.38
2018-06-03T12:16:04.446Z,98363.63
2018-06-03T12:18:32.740Z,98359.03
2018-06-03T12:21:01.098Z,98350.77
2018-06-03T12:23:29.419Z,98342.58
2018-06-03T12:25:57.821Z,98345.32
2018-06-03T12:28:26.180Z,98338.63
2018-06-03T12:30:54.510Z,98334.20
2018-06-03T12:33:22.881Z,98338.94
2018-06-03T12:35:51.205Z,98325.82
2018-06-03T12:38:19.572Z,98330.81
2018-06-03T12:40:47.889Z,98334.05
2018-06-03T12:43:16.241Z,98326.78
2018-06-03T12:45:44.546Z,98322.26
2018-06-03T12:48:12.896Z,98317.63
2018-06-03T12:50:41.201Z,98313.89
2018-06-03T12:53:09.543Z,98315.51
2018-06-03T12:55:37.853Z,98305.05
2018-06-03T12:58:06.234Z,98308.16
2018-06-03T13:00:34.600Z,98303.48
2018-06-03T13:03:03.156Z,98303.85
2018-06-03T13:05:31.428Z,98299.42
2018-06-03T13:07:59.935Z,98300.89
2018-06-03T13:10:28.351Z,98297.71
2018-06-03T13:12:56.666Z,98300.46
2018-06-03T13:15:24.951Z,98297.33
2018-06-03T13:17:53.302Z,98299.70
2018-06-03T13:20:21.563Z,98291.31
2018-06-03T13:22:49.843Z,98289.03
2018-06-03T13:25:18.117Z,98288.13
2018-06-03T13:27:46.433Z,98282.73
2018-06-03T13:30:14.806Z,98276.14
2018-06-03T13:32:43.144Z,98271.59
2018-06-03T13:35:11.801Z,98270.31
2018-06-03T13:37:40.178Z,98270.50
2018-06-03T13:40:08.529Z,98261.92
2018-06-03T13:42:36.857Z,98259.64
2018-06-03T13:45:05.233Z,98257.38
2018-06-03T13:47:33.627Z,98251.00
2018-06-03T13:50:01.947Z,98245.54
2018-06-03T13:52:30.443Z,98240.23
2018-06-03T13:54:58.847Z,98237.08
2018-06-03T13:57:27.189Z,98231.56
2018-06-03T13:59:55.536Z,98231.66
2018-06-03T14:02:23.986Z,98223.30
2018-06-03T14:04:52.289Z,98220.08
2018-06-03T14:07:20.691Z,98225.51
2018-06-03T14:09:49.070Z,98218.98
2018-06-03T14:12:17.541Z,98213.48
2018-06-03T14:14:45.851Z,98208.14
2018-06-03T14:17:14.308Z,98208.45
2018-06-03T14:19:42.617Z,98208.39
2018-06-03T14:22:10.967Z,98198.36
2018-06-03T14:24:39.304Z,98205.11
2018-06-03T14:27:07.631Z,98196.29
2018-06-03T14:29:36.066Z,98195.04
2018-06-03T14:32:04.416Z,98195.63
2018-06-03T14:34:32.671Z,98194.73
2018-06-03T14:37:00.945Z,98193.41
2018-06-03T14:39:29.282Z,98187.42
2018-06-03T14:41:57.661Z,98190.84
2018-06-03T14:44:26.215Z,98192.86
2018-06-03T14:46:54.438Z,98190.06
2018-06-03T14:49:22.767Z,98184.31
2018-06-03T14:51:51.275Z,98188.43
2018-06-03T14:54:19.580Z,98183.88
2018-06-03T14:56:47.886Z,98176.95
2018-06-03T14:59:16.144Z,98172.48
2018-06-03T15:01:44.465Z,98168.23
2018-06-03T15:04:12.869Z,98173.86
2018-06-03T15:06:41.228Z,98173.50
2018-06-03T15:09:09.513Z,98167.50
2018-06-03T15:11:37.893Z,98159.91
2018-06-03T15:14:06.396Z,98162.59
2018-06-03T15:16:34.754Z,98155.25
2018-06-03T15:19:03.148Z,98150.70
2018-06-03T15:21:31.682Z,98150.69
2018-06-03T15:24:00.054Z,98148.87
2018-06-03T15:26:28.435Z,98144.88
2018-06-03T15:28:56.765Z,98144.04
2018-06-03T15:31:25.065Z,98139.90
2018-06-03T15:33:53.508Z,98136.91
2018-06-03T15:36:21.778Z,98125.52
2018-06-03T15:38:50.068Z,98127.88
2018-06-03T15:41:18.445Z,98120.59
2018-06-03T15:43:46.776Z,98122.39
2018-06-03T15:46:15.002Z,98120.22
2018-06-03T15:48:43.351Z,98120.19
2018-06-03T15:51:11.724Z,98119.19
2018-06-03T15:53:39.981Z,98116.52
2018-06-03T15:56:08.253Z,98115.45
2018-06-03T15:58:36.616Z,98105.99
2018-06-03T16:01:04.940Z,98101.28
2018-06-03T16:03:33.299Z,98099.20
2018-06-03T16:06:01.641Z,98093.07
2018-06-03T16:08:30.020Z,98091.23
2018-06-03T16:10:58.338Z,98090.89
2018-06-03T16:13:26.810Z,98086.83
2018-06-03T16:15:56.150Z,98085.92
2018-06-03T16:18:25.062Z,98082.98
2018-06-03T16:20:53.555Z,98076.77
2018-06-03T16:23:21.894Z,98081.06
2018-06-03T16:25:50.394Z,98083.55
2018-06-03T16:28:19.057Z,98082.98
2018-06-03T16:30:47.579Z,98079.76
2018-06-03T16:33:15.993Z,98071.13
2018-06-03T16:35:44.240Z,98077.34
2018-06-03T16:38:12.756Z,98076.47
2018-06-03T16:40:41.196Z,98081.06
2018-06-03T16:43:09.660Z,98069.95
2018-06-03T16:45:38.009Z,98069.70
2018-06-03T16:48:06.353Z,98070.54
2018-06-03T16:50:34.739Z,98067.51
2018-06-03T16:53:03.144Z,98063.34
2018-06-03T16:55:31.775Z,98058.98
2018-06-03T16:58:00.141Z,98057.49
2018-06-03T17:00:28.595Z,98061.17
2018-06-03T17:02:56.914Z,98059.45
2018-06-03T17:05:26.113Z,98057.34
2018-06-03T17:07:54.460Z,98051.05
2018-06-03T17:10:22.887Z,98054.10
2018-06-03T17:12:51.220Z,98049.64
2018-06-03T17:15:19.548Z,98056.52
2018-06-03T17:17:47.887Z,98053.03
2018-06-03T17:20:16.329Z,98058.08
2018-06-03T17:22:44.887Z,98053.98
2018-06-03T17:25:13.363Z,98053.86
2018-06-03T17:27:41.778Z,98057.59
2018-06-03T17:30:10.132Z,98051.59
2018-06-03T17:32:38.614Z,98045.38
2018-06-03T17:35:07.040Z,98041.91
2018-06-03T17:37:35.386Z,98038.15
2018-06-03T17:40:03.724Z,98042.22
2018-06-03T17:42:32.107Z,98038.84
2018-06-03T17:45:00.412Z,98036.89
2018-06-03T17:47:31.078Z,98040.81
2018-06-03T17:50:00.057Z,98042.22
2018-06-03T17:52:28.412Z,98034.62
2018-06-03T17:54:57.047Z,98034.02
2018-06-03T17:57:26.458Z,98037.28
2018-06-03T17:59:55.074Z,98045.59
2018-06-03T18:02:25.540Z,98045.28
2018-06-03T18:04:53.980Z,98048.30
2018-06-03T18:07:22.435Z,98054.20
2018-06-03T18:09:50.703Z,98051.92
2018-06-03T18:12:19.050Z,98046.25
2018-06-03T18:14:47.467Z,98043.24
2018-06-03T18:17:16.095Z,98041.41
2018-06-03T18:19:44.384Z,98035.64
2018-06-03T18:22:12.730Z,98036.05
2018-06-03T18:24:41.081Z,98038.25
2018-06-03T18:27:09.429Z,98033.34
2018-06-03T18:29:38.081Z,98042.93
2018-06-03T18:32:06.475Z,98035.68
2018-06-03T18:34:34.838Z,98037.30
2018-06-03T18:37:03.123Z,98035.60
2018-06-03T18:39:31.423Z,98034.28
2018-06-03T18:41:59.782Z,98033.21
2018-06-03T18:44:28.171Z,98028.78
2018-06-03T18:46:56.532Z,98025.16
2018-06-03T18:49:24.880Z,98020.67
2018-06-03T18:51:53.190Z,98026.23
2018-06-03T18:54:21.594Z,98028.56
2018-06-03T18:56:49.923Z,98023.41
2018-06-03T18:59:18.383Z,98020.41
2018-06-03T19:01:46.662Z,98026.63
2018-06-03T19:04:15.089Z,98019.83
2018-06-03T19:06:43.625Z,98018.65
2018-06-03T19:09:11.973Z,98017.56
2018-06-03T19:11:40.394Z,98021.89
2018-06-03T19:14:08.792Z,98017.59
2018-06-03T19:16:37.196Z,98015.25
2018-06-03T19:19:05.555Z,98022.23
2018-06-03T19:21:33.864Z,98020.30
2018-06-03T19:29:59.973Z,98021.66
2018-06-03T19:32:28.471Z,98021.41
2018-06-03T19:34:56.780Z,98027.14
2018-06-03T19:37:25.484Z,98034.16
2018-06-03T19:39:53.778Z,98025.52
2018-06-03T19:42:22.169Z,98024.90
2018-06-03T19:44:50.584Z,98026.97
2018-06-03T19:47:18.964Z,98039.38
2018-06-03T19:49:47.415Z,98037.73
2018-06-03T19:52:15.756Z,98034.94
2018-06-03T19:54:44.231Z,98038.31
2018-06-03T19:57:12.579Z,98040.37
2018-06-03T19:59:41.050Z,98039.26
2018-06-03T20:02:09.385Z,98043.22
2018-06-03T20:04:37.857Z,98049.69
2018-06-03T20:07:06.688Z,98047.00
2018-06-03T20:09:34.973Z,98054.16
2018-06-03T20:12:03.465Z,98049.95
2018-06-03T20:14:31.825Z,98048.83
2018-06-03T20:17:00.323Z,98053.84
2018-06-03T20:19:28.842Z,98054.23
2018-06-03T20:21:57.244Z,98049.08
2018-06-03T20:24:25.677Z,98050.94
2018-06-03T20:26:54.044Z,98052.91
2018-06-03T20:29:22.329Z,98055.96
2018-06-03T20:31:50.838Z,98056.23
2018-06-03T20:34:19.291Z,98054.83
2018-06-03T20:36:47.626Z,98055.78
2018-06-03T20:39:16.092Z,98054.39
2018-06-03T20:41:44.427Z,98058.20
2018-06-03T20:44:13.445Z,98060.06
2018-06-03T20:46:41.740Z,98060.53
2018-06-03T20:49:10.196Z,98058.73
2018-06-03T20:51:38.525Z,98054.98
2018-06-03T20:54:06.855Z,98058.13
2018-06-03T20:56:35.200Z,98055.94
2018-06-03T20:59:03.889Z,98058.77
2018-06-03T21:01:32.336Z,98062.70
2018-06-03T21:04:00.681Z,98060.48
2018-06-03T21:06:29.174Z,98059.25
2018-06-03T21:08:57.466Z,98059.70
2018-06-03T21:11:25.826Z,98059.95
2018-06-03T21:13:54.231Z,98058.77
2018-06-03T21:16:23.237Z,98060.91
2018-06-03T21:18:51.676Z,98054.70
2018-06-03T21:21:20.151Z,98054.19
2018-06-03T21:23:51.122Z,98055.20
2018-06-03T21:26:20.128Z,98052.02
2018-06-03T21:28:49.466Z,98058.05
2018-06-03T21:31:18.585Z,98056.22
2018-06-03T21:33:47.089Z,98053.78
2018-06-03T21:36:15.393Z,98058.81
2018-06-03T21:38:43.693Z,98061.00
2018-06-03T21:41:12.022Z,98065.05
2018-06-03T21:43:40.363Z,98065.39
2018-06-03T21:46:08.696Z,98057.92
2018-06-03T21:48:37.212Z,98056.09
2018-06-03T21:51:05.709Z,98059.59
2018-06-03T21:53:34.090Z,98064.75
2018-06-03T21:56:02.336Z,98058.05
2018-06-03T21:58:30.750Z,98060.27
2018-06-03T22:00:59.187Z,98064.80
2018-06-03T22:03:27.604Z,98060.01
2018-06-03T22:05:56.021Z,98059.42
2018-06-03T22:08:24.524Z,98068.13
2018-06-03T22:10:53.286Z,98070.64
2018-06-03T22:13:21.663Z,98071.74
2018-06-03T22:15:50.006Z,98074.78
2018-06-03T22:18:18.468Z,98067.31
2018-06-03T22:20:46.920Z,98067.18
2018-06-03T22:23:15.346Z,98064.49
2018-06-03T22:25:43.798Z,98061.09
2018-06-03T22:28:12.238Z,98061.09
2018-06-03T22:36:38.439Z,98062.73
2018-06-03T22:39:09.293Z,98060.58
2018-06-03T22:41:37.999Z,98059.69
2018-06-03T22:44:06.374Z,98056.70
2018-06-03T22:46:35.716Z,98054.48
2018-06-03T22:49:04.159Z,98056.14
2018-06-03T22:51:32.558Z,98058.83
2018-06-03T22:54:01.202Z,98058.16
2018-06-03T22:56:39.834Z,98058.93
2018-06-03T22:59:09.264Z,98058.80
2018-06-03T23:01:38.655Z,98053.84
2018-06-03T23:04:07.256Z,98057.03
2018-06-03T23:06:36.520Z,98060.40
2018-06-03T23:09:07.435Z,98058.46
2018-06-03T23:11:35.853Z,98054.76
2018-06-03T23:14:04.402Z,98053.09
2018-06-03T23:16:35.704Z,98048.91
2018-06-03T23:19:06.063Z,98047.51
2018-06-03T23:21:34.388Z,98044.17
2018-06-03T23:24:02.760Z,98044.41
2018-06-03T23:26:31.304Z,98039.43
2018-06-03T23:28:59.722Z,98034.97
2018-06-03T23:31:28.730Z,98036.00
2018-06-03T23:33:57.207Z,98030.95
2018-06-03T23:36:25.522Z,98031.91
2018-06-03T23:38:53.994Z,98025.72
2018-06-03T23:41:22.368Z,98026.59
2018-06-03T23:43:50.765Z,98028.38
2018-06-03T23:46:19.825Z,98028.00
2018-06-03T23:48:48.234Z,98022.28
2018-06-03T23:51:16.735Z,98015.38
2018-06-03T23:53:45.089Z,98013.08
2018-06-03T23:56:13.479Z,98004.52
2018-06-03T23:58:41.901Z,98002.38
